Reidville, South Carolina
Current Conditions -  °F | °C
As of 4:53 AM on Wednesday 26 Nov 2014 (Local Time) from KGSP Reporting Station
Moderate Rain Moderate Rain  
Wind Chill: 41°   Ceiling: 5500
Heat Index: 45°   Visibility: 7mi
Dew Point: 44°   Wind: 8mph
Humidity: 97%   Direction: 50°NE
Pressure: 29.94"   Gusts: NA
Location:  34.86°N, 82.11°W
Report Text: KGSP 260953Z AUTO 05007KT 7SM RA OVC055 07/07 A2994 RMK AO2 SLP136 P0009 T00720067
Loading
Personal Weather Stations






























Interactive Weather Map New forecast layout! Learn more

10-Day Weather Forecast

Advertisements
Track Severe Weather on mobile